Aviation Digital Data Service (ADDS)

Output produced by METARs form (1306 UTC 21 February 2018)
found at http://www.aviationweather.gov/adds/metars/
 
UATE 211300Z 12002MPS 090V150 9999 OVC047 04/M01 Q1023 R12/0///70 NOSIG RMK QFE765/1021
UATT 211300Z 26003MPS 9999 BKN024 M07/M09 Q1021 R31/0///60 NOSIG RMK QFE745/0994
UAAA 211300Z 08003MPS 0900 R23R/P2000 R23L/P2000 DZ FG OVC001 01/00 Q1023 R88/2///50 NOSIG RMK QBB050
UAAA 211300Z 08003MPS 0900 R23R/P2000 R23L/P2000 DZ FG OVC001 01/00 Q1023 R88/2///50 NOSIG RMK QBB050
UACC 211300Z 24007MPS 4500 -SN DRSN BKN008 OVC025 M04/M05 Q1011 R22/450555 NOSIG RMK QFE727/0969
UADD 211300Z 13003MPS 9999 BKN030CB OVC100 02/01 Q1022 R13/19//60 NOSIG RMK QFE709/0946
UAII 211300Z 00000MPS 6000 -SHRA OVC026CB 05/04 Q1024 R10/2///55 NOSIG RMK QFE732/0977
UAKD 211300Z 26008MPS 7000 DRSN BKN013CB OVC100 M06/M07 Q1017 R22/1///60 NOSIG RMK QFE729/0973
UAKK 211300Z 22009MPS 5000 -SN DRSN BKN020 M04/M05 Q1012 R23/422545 NOSIG RMK QFE713/0950
UAOO 211300Z 27004MPS 9999 OVC006 01/00 Q1022 R23/290050 NOSIG RMK QBB200 QFE755/1007
UARR 211300Z 23004MPS CAVOK M08/M10 Q1022 R22/390060 NOSIG RMK QFE763/1018
UASK 211300Z 07001MPS 4000 BR BKN220 M10/M13 Q1019 R30/850150 NOSIG RMK QFE739/0985
UASP 211300Z 17005MPS CAVOK M06/M09 Q1014 R21/720350 NOSIG RMK QFE749/0999
UATE 211300Z 12002MPS 090V150 9999 OVC047 04/M01 Q1023 R12/0///70 NOSIG RMK QFE765/1021
UATG 211300Z 04003MPS 9999 SCT024 M01/M06 Q1026 R14/CLRD70 NOSIG RMK QFE771/1029
UATT 211300Z 26003MPS 9999 BKN024 M07/M09 Q1021 R31/0///60 NOSIG RMK QFE745/0994
UAUU 211300Z 28006MPS CAVOK M09/M12 Q1014 R33/820060 NOSIG RMK QFE745/0993
UACC 211300Z 24007MPS 4500 -SN DRSN BKN008 OVC025 M04/M05 Q1011 R22/450555 NOSIG RMK QFE727/0969
UATG 211300Z 04003MPS 9999 SCT024 M01/M06 Q1026 R14/CLRD70 NOSIG RMK QFE771/1029
UAKK 211300Z 22009MPS 5000 -SN DRSN BKN020 M04/M05 Q1012 R23/422545 NOSIG RMK QFE713/0950
UAUU 211300Z 28006MPS CAVOK M09/M12 Q1014 R33/820060 NOSIG RMK QFE745/0993
UAII 211300Z 00000MPS 6000 -SHRA OVC026CB 05/04 Q1024 R10/2///55 NOSIG RMK QFE732/0977
UARR 211300Z 23004MPS CAVOK M08/M10 Q1022 R22/390060 NOSIG RMK QFE763/1018
UASK 211300Z 07001MPS 4000 BR BKN220 M10/M13 Q1019 R30/850150 NOSIG RMK QFE739/0985
UAKD 211300Z 26008MPS 7000 DRSN BKN013CB OVC100 M06/M07 Q1017 R22/1///60 NOSIG RMK QFE729/0973